createdAt,value
2019-03-24T00:00:54.617Z,7.90
2019-03-24T00:03:26.895Z,7.60
2019-03-24T00:05:58.596Z,8.47
2019-03-24T00:08:26.902Z,8.77
2019-03-24T00:10:55.257Z,6.77
2019-03-24T00:13:24.958Z,6.97
2019-03-24T00:15:53.451Z,8.37
2019-03-24T00:18:21.757Z,8.53
2019-03-24T00:20:50.301Z,7.77
2019-03-24T00:23:18.678Z,7.20
2019-03-24T00:25:46.957Z,9.37
2019-03-24T00:28:15.272Z,9.10
2019-03-24T00:30:43.618Z,8.87
2019-03-24T00:33:11.934Z,8.07
2019-03-24T00:35:40.215Z,8.80
2019-03-24T00:38:08.598Z,11.20
2019-03-24T00:40:37.020Z,10.70
2019-03-24T00:43:05.350Z,10.40
2019-03-24T00:45:37.133Z,10.33
2019-03-24T00:48:03.716Z,10.23
2019-03-24T00:50:32.175Z,9.70
2019-03-24T00:53:00.454Z,8.97
2019-03-24T00:55:28.776Z,10.53
2019-03-24T00:57:57.154Z,9.73
2019-03-24T01:00:44.251Z,11.40
2019-03-24T01:03:12.852Z,10.57
2019-03-24T01:05:41.200Z,10.20
2019-03-24T01:08:09.575Z,10.13
2019-03-24T01:10:37.954Z,10.87
2019-03-24T01:13:06.272Z,11.80
2019-03-24T01:15:34.630Z,11.80
2019-03-24T01:18:03.113Z,10.93
2019-03-24T01:20:31.567Z,9.70
2019-03-24T01:22:59.911Z,11.43
2019-03-24T01:25:28.234Z,10.13
2019-03-24T01:27:56.596Z,10.03
2019-03-24T01:30:24.916Z,10.60
2019-03-24T01:32:53.346Z,9.17
2019-03-24T01:35:21.714Z,9.90
2019-03-24T01:37:50.033Z,10.30
2019-03-24T01:40:18.659Z,9.33
2019-03-24T01:42:46.967Z,9.40
2019-03-24T01:45:15.356Z,10.30
2019-03-24T01:47:43.641Z,9.00
2019-03-24T01:50:12.339Z,9.70
2019-03-24T01:52:40.875Z,8.73
2019-03-24T01:55:09.356Z,10.30
2019-03-24T01:57:37.722Z,9.70
2019-03-24T02:00:07.006Z,10.30
2019-03-24T02:02:35.288Z,7.67
2019-03-24T02:05:05.152Z,8.47
2019-03-24T02:07:33.442Z,9.40
2019-03-24T02:10:01.800Z,8.50
2019-03-24T02:12:30.231Z,8.23
2019-03-24T02:14:58.685Z,7.57
2019-03-24T02:17:26.959Z,9.27
2019-03-24T02:19:55.364Z,8.97
2019-03-24T02:22:23.667Z,8.67
2019-03-24T02:24:51.980Z,8.57
2019-03-24T02:27:20.356Z,9.17
2019-03-24T02:29:48.643Z,9.07
2019-03-24T02:32:16.939Z,8.07
2019-03-24T02:34:45.227Z,9.07
2019-03-24T02:37:13.546Z,8.67
2019-03-24T02:39:41.821Z,8.80
2019-03-24T02:42:10.198Z,9.77
2019-03-24T02:44:38.907Z,10.73
2019-03-24T02:47:07.208Z,8.73
2019-03-24T02:49:35.528Z,9.80
2019-03-24T02:52:03.836Z,10.90
2019-03-24T02:54:32.112Z,12.10
2019-03-24T02:57:00.496Z,12.07
2019-03-24T02:59:28.767Z,10.73
2019-03-24T03:01:57.083Z,11.63
2019-03-24T03:04:25.519Z,12.57
2019-03-24T03:06:53.833Z,12.43
2019-03-24T03:09:22.128Z,13.23
2019-03-24T03:11:50.495Z,11.90
2019-03-24T03:14:18.799Z,15.73
2019-03-24T03:16:47.217Z,13.70
2019-03-24T03:19:15.582Z,13.53
2019-03-24T03:21:43.935Z,11.97
2019-03-24T03:24:12.333Z,12.20
2019-03-24T03:26:40.682Z,13.23
2019-03-24T03:29:08.993Z,12.20
2019-03-24T03:31:37.283Z,10.83
2019-03-24T03:34:05.655Z,12.17
2019-03-24T03:36:33.940Z,11.20
2019-03-24T03:39:02.359Z,12.50
2019-03-24T03:41:30.653Z,12.17
2019-03-24T03:43:59.038Z,11.87
2019-03-24T03:46:27.380Z,13.37
2019-03-24T03:48:55.700Z,11.23
2019-03-24T03:51:23.991Z,11.60
2019-03-24T03:53:52.315Z,11.40
2019-03-24T03:56:20.607Z,10.70
2019-03-24T03:58:49.067Z,10.93
2019-03-24T04:01:18.651Z,11.33
2019-03-24T04:03:47.033Z,10.23
2019-03-24T04:06:15.317Z,8.93
2019-03-24T04:08:43.677Z,9.63
2019-03-24T04:11:11.956Z,9.93
2019-03-24T04:13:40.362Z,10.10
2019-03-24T04:16:08.710Z,10.17
2019-03-24T04:18:37.002Z,10.53
2019-03-24T04:21:05.980Z,10.27
2019-03-24T04:23:34.391Z,11.23
2019-03-24T04:26:02.839Z,11.97
2019-03-24T04:28:31.150Z,11.07
2019-03-24T04:30:59.554Z,9.37
2019-03-24T04:33:27.851Z,10.33
2019-03-24T04:35:56.174Z,12.87
2019-03-24T04:38:24.503Z,10.73
2019-03-24T04:40:52.896Z,10.00
2019-03-24T04:43:22.726Z,11.10
2019-03-24T04:45:51.159Z,9.63
2019-03-24T04:48:19.443Z,10.47
2019-03-24T04:50:47.762Z,9.73
2019-03-24T04:53:16.045Z,9.10
2019-03-24T04:55:44.420Z,9.90
2019-03-24T04:58:12.776Z,8.03
2019-03-24T05:00:41.152Z,9.00
2019-03-24T05:03:09.504Z,9.63
2019-03-24T05:05:38.372Z,8.37
2019-03-24T05:08:08.184Z,9.00
2019-03-24T05:10:36.491Z,8.47
2019-03-24T05:13:04.768Z,8.73
2019-03-24T05:15:33.164Z,8.90
2019-03-24T05:18:01.447Z,8.93
2019-03-24T05:20:29.736Z,7.37
2019-03-24T05:22:58.037Z,7.63
2019-03-24T05:25:26.313Z,7.77
2019-03-24T05:27:54.703Z,9.07
2019-03-24T05:30:22.990Z,9.70
2019-03-24T05:32:51.288Z,8.10
2019-03-24T05:35:19.565Z,7.80
2019-03-24T05:37:47.868Z,7.90
2019-03-24T05:40:16.237Z,7.47
2019-03-24T05:42:44.621Z,9.17
2019-03-24T05:45:12.972Z,8.60
2019-03-24T05:47:41.245Z,7.77
2019-03-24T05:50:09.837Z,8.07
2019-03-24T05:52:38.194Z,7.90
2019-03-24T05:55:06.987Z,7.57
2019-03-24T05:57:35.790Z,7.93
2019-03-24T06:00:06.714Z,7.47
2019-03-24T06:02:35.651Z,6.93
2019-03-24T06:05:05.480Z,7.77
2019-03-24T06:07:34.235Z,6.73
2019-03-24T06:10:05.188Z,6.77
2019-03-24T06:12:33.956Z,6.93
2019-03-24T06:15:02.937Z,6.80
2019-03-24T06:17:31.720Z,6.80
2019-03-24T06:20:00.617Z,6.67
2019-03-24T06:22:29.445Z,8.77
2019-03-24T06:24:58.215Z,6.90
2019-03-24T06:27:27.000Z,7.07
2019-03-24T06:29:55.826Z,6.70
2019-03-24T06:32:24.767Z,7.43
2019-03-24T06:34:53.567Z,6.93
2019-03-24T06:37:22.438Z,7.80
2019-03-24T06:39:51.186Z,7.03
2019-03-24T06:42:19.965Z,6.80
2019-03-24T06:44:48.841Z,8.27
2019-03-24T06:47:17.638Z,8.30
2019-03-24T06:49:46.496Z,9.27
2019-03-24T06:52:15.213Z,8.60
2019-03-24T06:54:43.958Z,8.80
2019-03-24T06:57:12.733Z,8.13
2019-03-24T06:59:41.487Z,8.67
2019-03-24T07:02:10.300Z,8.90
2019-03-24T07:04:39.091Z,8.57
2019-03-24T07:07:07.900Z,8.83
2019-03-24T07:09:36.683Z,9.77
2019-03-24T07:12:05.551Z,8.40
2019-03-24T07:14:34.349Z,7.20
2019-03-24T07:17:03.314Z,8.10
2019-03-24T07:19:32.205Z,7.37
2019-03-24T07:22:01.025Z,9.10
2019-03-24T07:24:29.808Z,7.97
2019-03-24T07:26:58.641Z,8.30
2019-03-24T07:29:27.437Z,8.63
2019-03-24T07:31:56.363Z,8.37
2019-03-24T07:34:25.185Z,7.60
2019-03-24T07:36:54.159Z,8.57
2019-03-24T07:39:22.981Z,7.77
2019-03-24T07:41:51.889Z,8.17
2019-03-24T07:44:20.737Z,8.03
2019-03-24T07:46:49.655Z,6.87
2019-03-24T07:49:18.692Z,7.60
2019-03-24T07:51:47.476Z,7.30
2019-03-24T07:54:16.210Z,8.10
2019-03-24T07:56:46.549Z,8.37
2019-03-24T07:59:15.370Z,7.80
2019-03-24T08:01:44.119Z,7.23
2019-03-24T08:04:12.905Z,8.00
2019-03-24T08:06:41.626Z,7.30
2019-03-24T08:09:10.491Z,7.60
2019-03-24T08:11:39.310Z,8.00
2019-03-24T08:14:08.222Z,8.00
2019-03-24T08:16:37.015Z,8.27
2019-03-24T08:19:06.404Z,8.87
2019-03-24T08:21:35.162Z,8.13
2019-03-24T08:24:04.033Z,8.30
2019-03-24T08:26:32.811Z,7.90
2019-03-24T08:29:01.541Z,9.23
2019-03-24T08:31:30.319Z,8.53
2019-03-24T08:33:59.135Z,8.10
2019-03-24T08:36:27.979Z,8.93
2019-03-24T08:38:56.773Z,9.50
2019-03-24T08:41:25.653Z,9.73
2019-03-24T08:43:54.456Z,11.53
2019-03-24T08:46:23.182Z,12.50
2019-03-24T08:48:51.995Z,18.20
2019-03-24T08:51:20.763Z,23.30
2019-03-24T08:53:49.486Z,20.17
2019-03-24T08:56:18.234Z,19.30
2019-03-24T08:58:46.986Z,18.17
2019-03-24T09:01:15.690Z,16.23
2019-03-24T09:03:44.416Z,14.40
2019-03-24T09:06:13.237Z,11.70
2019-03-24T09:08:41.957Z,10.97
2019-03-24T09:11:10.700Z,11.87
2019-03-24T09:13:39.484Z,11.50
2019-03-24T09:16:08.243Z,11.00
2019-03-24T09:18:37.039Z,10.00
2019-03-24T09:21:05.836Z,9.07
2019-03-24T09:23:34.625Z,10.60
2019-03-24T09:26:03.453Z,9.07
2019-03-24T09:28:32.159Z,8.80
2019-03-24T09:31:00.927Z,9.20
2019-03-24T09:33:29.632Z,9.83
2019-03-24T09:35:58.371Z,9.37
2019-03-24T09:38:27.298Z,9.33
2019-03-24T09:40:56.028Z,10.37
2019-03-24T09:43:24.749Z,8.80
2019-03-24T09:45:53.487Z,8.93
2019-03-24T09:48:22.244Z,8.87
2019-03-24T09:50:51.090Z,8.77
2019-03-24T09:53:19.829Z,9.13
2019-03-24T09:55:48.580Z,9.20
2019-03-24T09:58:17.301Z,8.10
2019-03-24T10:00:46.026Z,6.87
2019-03-24T10:03:14.839Z,5.83
2019-03-24T10:05:43.548Z,6.23
2019-03-24T10:08:12.882Z,6.13
2019-03-24T10:10:41.693Z,6.40
2019-03-24T10:13:10.425Z,7.33
2019-03-24T10:15:39.145Z,7.30
2019-03-24T10:18:07.964Z,6.43
2019-03-24T10:20:36.683Z,6.13
2019-03-24T10:23:05.562Z,4.83
2019-03-24T10:25:34.351Z,5.80
2019-03-24T10:28:03.090Z,5.03
2019-03-24T10:30:37.820Z,4.70
2019-03-24T10:33:06.557Z,4.53
2019-03-24T10:35:35.345Z,4.83
2019-03-24T10:38:04.159Z,5.20
2019-03-24T10:40:33.113Z,5.10
2019-03-24T10:43:01.936Z,4.87
2019-03-24T10:45:30.732Z,4.97
2019-03-24T10:47:59.469Z,5.03
2019-03-24T10:50:28.189Z,4.77
2019-03-24T10:53:23.037Z,4.90
2019-03-24T10:56:04.388Z,4.60
2019-03-24T10:58:45.585Z,5.20
2019-03-24T11:01:27.055Z,5.80
2019-03-24T11:04:08.410Z,4.63
2019-03-24T11:06:49.601Z,4.70
2019-03-24T11:09:30.773Z,4.13
2019-03-24T11:12:12.143Z,4.87
2019-03-24T11:14:53.423Z,4.73
2019-03-24T11:17:34.705Z,4.77
2019-03-24T11:20:13.815Z,4.10
2019-03-24T11:23:01.900Z,4.40
2019-03-24T11:25:50.083Z,4.37
2019-03-24T11:28:38.191Z,4.80
2019-03-24T11:31:26.290Z,5.00
2019-03-24T11:34:14.734Z,5.43
2019-03-24T11:37:02.882Z,5.50
2019-03-24T11:39:51.105Z,5.20
2019-03-24T11:42:39.244Z,4.60
2019-03-24T11:45:20.596Z,4.33
2019-03-24T11:48:01.991Z,5.00
2019-03-24T11:50:43.356Z,4.53
2019-03-24T11:53:24.777Z,4.27
2019-03-24T11:56:06.084Z,4.50
2019-03-24T11:58:47.463Z,4.57
2019-03-24T12:01:37.961Z,4.03
2019-03-24T12:04:11.413Z,4.27
2019-03-24T12:06:52.892Z,4.90
2019-03-24T12:09:34.269Z,3.93
2019-03-24T12:12:15.631Z,3.13
2019-03-24T12:14:54.741Z,3.70
2019-03-24T12:17:42.809Z,3.50
2019-03-24T12:20:30.941Z,3.83
2019-03-24T12:23:38.982Z,3.27
2019-03-24T12:26:27.101Z,2.90
2019-03-24T12:29:15.168Z,2.77
2019-03-24T12:32:03.335Z,2.30
2019-03-24T12:34:51.579Z,2.03
2019-03-24T12:37:39.644Z,2.40
2019-03-24T12:40:27.767Z,2.20
2019-03-24T12:43:22.253Z,3.00
2019-03-24T12:46:11.879Z,2.87
2019-03-24T12:48:53.052Z,3.33
2019-03-24T12:51:34.167Z,3.43
2019-03-24T12:54:14.831Z,3.27
2019-03-24T12:56:56.740Z,2.90
2019-03-24T12:59:37.861Z,2.63
2019-03-24T13:02:19.307Z,2.80
2019-03-24T13:05:00.425Z,2.40
2019-03-24T13:07:41.626Z,1.97
2019-03-24T13:10:22.914Z,2.20
2019-03-24T13:12:51.660Z,2.63
2019-03-24T13:15:39.856Z,2.07
2019-03-24T13:18:08.987Z,2.80
2019-03-24T13:20:57.252Z,2.70
2019-03-24T13:23:45.437Z,2.93
2019-03-24T13:26:53.766Z,2.27
2019-03-24T13:30:02.005Z,2.60
2019-03-24T13:32:50.195Z,2.07
2019-03-24T13:35:58.283Z,2.33
2019-03-24T13:38:46.384Z,2.10
2019-03-24T13:41:54.453Z,2.30
2019-03-24T13:44:42.709Z,2.27
2019-03-24T13:47:23.227Z,2.00
2019-03-24T13:50:04.604Z,2.43
2019-03-24T13:52:45.939Z,1.73
2019-03-24T13:55:27.249Z,1.80
2019-03-24T13:57:56.128Z,2.33
2019-03-24T14:00:44.286Z,2.23
2019-03-24T14:03:32.335Z,2.23
2019-03-24T14:06:20.402Z,2.37
2019-03-24T14:09:08.531Z,2.07
2019-03-24T14:11:56.614Z,2.40
2019-03-24T14:14:25.447Z,2.33
2019-03-24T14:16:54.191Z,2.87
2019-03-24T14:19:23.019Z,2.27
2019-03-24T14:21:51.872Z,2.93
2019-03-24T14:24:20.713Z,2.43
2019-03-24T14:26:49.610Z,2.90
2019-03-24T14:29:18.595Z,1.90
2019-03-24T14:31:47.373Z,1.97
2019-03-24T14:34:16.166Z,1.83
2019-03-24T14:36:44.925Z,1.90
2019-03-24T14:39:13.641Z,1.97
2019-03-24T14:41:42.376Z,1.97
2019-03-24T14:44:11.100Z,2.10
2019-03-24T14:46:39.938Z,2.00
2019-03-24T14:49:08.706Z,1.60
2019-03-24T14:51:37.422Z,2.00
2019-03-24T14:54:06.167Z,1.80
2019-03-24T14:56:34.911Z,1.80
2019-03-24T14:59:03.795Z,2.00
2019-03-24T15:01:32.599Z,1.50
2019-03-24T15:04:01.337Z,1.80
2019-03-24T15:06:30.207Z,2.13
2019-03-24T15:08:58.945Z,1.97
2019-03-24T15:11:27.853Z,2.20
2019-03-24T15:13:56.698Z,2.47
2019-03-24T15:16:25.571Z,2.13
2019-03-24T15:18:54.404Z,1.93
2019-03-24T15:21:23.434Z,2.47
2019-03-24T15:23:52.334Z,2.87
2019-03-24T15:26:21.119Z,2.27
2019-03-24T15:28:49.929Z,2.50
2019-03-24T15:31:18.771Z,2.30
2019-03-24T15:33:47.583Z,3.37
2019-03-24T15:36:16.439Z,2.90
2019-03-24T15:38:45.219Z,2.50
2019-03-24T15:41:14.098Z,2.60
2019-03-24T15:43:42.946Z,2.40
2019-03-24T15:46:11.810Z,3.10
2019-03-24T15:48:40.705Z,2.47
2019-03-24T15:51:16.921Z,3.03
2019-03-24T15:53:39.915Z,2.90
2019-03-24T15:56:08.760Z,2.30
2019-03-24T15:58:37.708Z,2.47
2019-03-24T16:01:06.446Z,2.93
2019-03-24T16:03:35.283Z,2.63
2019-03-24T16:06:04.070Z,2.90
2019-03-24T16:08:32.825Z,2.67
2019-03-24T16:11:01.643Z,2.90
2019-03-24T16:13:30.435Z,2.83
2019-03-24T16:15:59.265Z,3.50
2019-03-24T16:18:28.135Z,3.13
2019-03-24T16:20:57.061Z,3.23
2019-03-24T16:23:25.863Z,3.27
2019-03-24T16:25:55.722Z,3.03
2019-03-24T16:28:24.753Z,3.10
2019-03-24T16:30:53.551Z,3.17
2019-03-24T16:33:22.348Z,3.27
2019-03-24T16:35:51.084Z,3.20
2019-03-24T16:38:19.878Z,3.17
2019-03-24T16:40:48.770Z,3.47
2019-03-24T16:43:17.481Z,2.70
2019-03-24T16:45:47.366Z,2.53
2019-03-24T16:48:16.286Z,2.97
2019-03-24T16:50:45.189Z,2.50
2019-03-24T16:53:14.020Z,3.30
2019-03-24T16:55:42.877Z,2.50
2019-03-24T16:58:11.649Z,2.60
2019-03-24T17:00:40.513Z,2.40
2019-03-24T17:03:09.388Z,2.30
2019-03-24T17:05:38.214Z,2.17
2019-03-24T17:08:07.042Z,2.00
2019-03-24T17:10:35.915Z,2.47
2019-03-24T17:13:04.764Z,2.30
2019-03-24T17:15:33.589Z,2.33
2019-03-24T17:18:02.502Z,2.03
2019-03-24T17:20:31.425Z,2.47
2019-03-24T17:23:00.770Z,2.63
2019-03-24T17:25:29.674Z,1.80
2019-03-24T17:27:58.451Z,1.70
2019-03-24T17:30:27.245Z,2.23
2019-03-24T17:32:56.042Z,3.00
2019-03-24T17:35:24.886Z,1.83
2019-03-24T17:37:53.639Z,2.00
2019-03-24T17:40:22.392Z,2.30
2019-03-24T17:42:51.201Z,2.27
2019-03-24T17:45:20.052Z,2.13
2019-03-24T17:47:48.939Z,2.60
2019-03-24T17:50:17.857Z,3.20
2019-03-24T17:52:46.663Z,2.20
2019-03-24T17:55:15.513Z,2.47
2019-03-24T17:57:44.447Z,2.47
2019-03-24T18:00:15.383Z,2.73
2019-03-24T18:02:44.203Z,2.63
2019-03-24T18:05:13.173Z,3.60
2019-03-24T18:07:42.050Z,3.03
2019-03-24T18:10:12.208Z,3.17
2019-03-24T18:12:41.162Z,2.97
2019-03-24T18:15:10.404Z,3.67
2019-03-24T18:17:39.269Z,3.20
2019-03-24T18:20:10.054Z,3.73
2019-03-24T18:22:39.185Z,3.80
2019-03-24T18:25:09.630Z,3.70
2019-03-24T18:27:38.566Z,3.87
2019-03-24T18:30:09.834Z,3.83
2019-03-24T18:32:38.708Z,3.50
2019-03-24T18:35:09.128Z,3.70
2019-03-24T18:37:38.073Z,3.30
2019-03-24T18:40:09.562Z,3.77
2019-03-24T18:42:38.432Z,3.50
2019-03-24T18:45:10.339Z,4.23
2019-03-24T18:47:39.463Z,3.53
2019-03-24T18:50:10.054Z,3.90
2019-03-24T18:52:38.886Z,3.13
2019-03-24T18:55:08.353Z,3.50
2019-03-24T18:57:38.809Z,3.73
2019-03-24T19:00:08.813Z,3.57
2019-03-24T19:02:37.705Z,3.40
2019-03-24T19:05:07.013Z,3.83
2019-03-24T19:07:35.935Z,3.93
2019-03-24T19:10:06.917Z,3.57
2019-03-24T19:12:36.027Z,3.47
2019-03-24T19:15:10.067Z,3.30
2019-03-24T19:17:38.937Z,3.37
2019-03-24T19:20:08.476Z,3.73
2019-03-24T19:22:37.380Z,3.77
2019-03-24T19:25:07.185Z,3.13
2019-03-24T19:27:36.123Z,3.47
2019-03-24T19:30:07.723Z,3.20
2019-03-24T19:32:36.661Z,3.60
2019-03-24T19:35:06.913Z,3.10
2019-03-24T19:37:36.081Z,3.80
2019-03-24T19:40:13.725Z,3.20
2019-03-24T19:42:42.631Z,2.97
2019-03-24T19:45:11.797Z,3.40
2019-03-24T19:47:40.623Z,2.83
2019-03-24T19:50:09.923Z,3.10
2019-03-24T19:52:44.588Z,3.13
2019-03-24T19:55:09.514Z,3.60
2019-03-24T19:57:42.142Z,3.00
2019-03-24T20:00:11.264Z,2.63
2019-03-24T20:02:40.167Z,3.13
2019-03-24T20:05:09.451Z,3.40
2019-03-24T20:07:47.508Z,3.00
2019-03-24T20:10:09.092Z,3.70
2019-03-24T20:12:38.057Z,3.57
2019-03-24T20:15:07.418Z,3.47
2019-03-24T20:17:36.273Z,3.30
2019-03-24T20:20:06.143Z,4.30
2019-03-24T20:22:35.065Z,3.83
2019-03-24T20:25:05.958Z,4.10
2019-03-24T20:27:34.903Z,3.80
2019-03-24T20:30:07.080Z,3.90
2019-03-24T20:32:36.098Z,4.40
2019-03-24T20:35:06.845Z,4.03
2019-03-24T20:37:36.069Z,4.07
2019-03-24T20:40:05.785Z,4.10
2019-03-24T20:42:34.736Z,4.53
2019-03-24T20:45:06.110Z,4.70
2019-03-24T20:47:35.050Z,4.23
2019-03-24T20:50:08.933Z,4.20
2019-03-24T20:52:37.706Z,4.17
2019-03-24T20:55:07.025Z,4.43
2019-03-24T20:57:35.887Z,4.20
2019-03-24T21:00:07.294Z,5.00
2019-03-24T21:02:36.264Z,4.33
2019-03-24T21:05:05.623Z,4.70
2019-03-24T21:07:41.465Z,4.90
2019-03-24T21:10:10.614Z,4.37
2019-03-24T21:12:39.550Z,3.93
2019-03-24T21:15:11.264Z,5.43
2019-03-24T21:17:39.414Z,5.37
2019-03-24T21:20:08.546Z,4.60
2019-03-24T21:22:37.382Z,5.20
2019-03-24T21:25:06.331Z,4.63
2019-03-24T21:27:35.040Z,4.73
2019-03-24T21:30:05.832Z,3.93
2019-03-24T21:32:34.563Z,4.33
2019-03-24T21:35:05.722Z,4.97
2019-03-24T21:37:34.669Z,4.93
2019-03-24T21:40:06.279Z,4.60
2019-03-24T21:42:35.422Z,4.60
2019-03-24T21:45:07.186Z,4.20
2019-03-24T21:47:36.166Z,4.23
2019-03-24T21:50:06.341Z,4.90
2019-03-24T21:52:35.298Z,5.13
2019-03-24T21:55:05.013Z,4.63
2019-03-24T21:57:33.944Z,4.67
2019-03-24T22:00:07.378Z,4.57
2019-03-24T22:02:36.292Z,4.33
2019-03-24T22:05:05.735Z,4.03
2019-03-24T22:07:34.465Z,4.40
2019-03-24T22:10:05.297Z,3.70
2019-03-24T22:12:34.063Z,3.93
2019-03-24T22:15:04.516Z,4.23
2019-03-24T22:17:33.376Z,4.07
2019-03-24T22:20:02.357Z,3.53
2019-03-24T22:22:31.314Z,3.93
2019-03-24T22:25:00.360Z,4.57
2019-03-24T22:27:29.151Z,3.80
2019-03-24T22:29:58.063Z,4.03
2019-03-24T22:32:27.014Z,4.57
2019-03-24T22:34:55.817Z,4.13
2019-03-24T22:37:24.557Z,4.40
2019-03-24T22:39:53.308Z,4.47
2019-03-24T22:42:22.215Z,4.60
2019-03-24T22:44:51.037Z,3.83
2019-03-24T22:47:19.770Z,4.67
2019-03-24T22:49:48.528Z,4.37
2019-03-24T22:52:17.482Z,4.53
2019-03-24T22:54:46.317Z,4.67
2019-03-24T22:57:15.114Z,4.93
2019-03-24T22:59:44.017Z,5.80
2019-03-24T23:02:12.885Z,5.33
2019-03-24T23:04:41.767Z,4.93
2019-03-24T23:07:10.651Z,5.10
2019-03-24T23:09:39.474Z,5.37
2019-03-24T23:12:08.328Z,5.33
2019-03-24T23:14:37.237Z,5.27
2019-03-24T23:17:06.023Z,5.63
2019-03-24T23:19:34.979Z,5.20
2019-03-24T23:22:03.938Z,5.60
2019-03-24T23:24:32.834Z,4.83
2019-03-24T23:27:01.634Z,5.67
2019-03-24T23:29:30.459Z,4.97
2019-03-24T23:31:59.335Z,5.40
2019-03-24T23:34:28.138Z,5.60
2019-03-24T23:36:56.912Z,5.53
2019-03-24T23:39:25.750Z,6.30
2019-03-24T23:41:54.602Z,7.80
2019-03-24T23:44:23.392Z,5.03
2019-03-24T23:46:52.217Z,5.40
2019-03-24T23:49:21.097Z,5.43
2019-03-24T23:51:49.855Z,4.97
2019-03-24T23:54:26.984Z,5.20
2019-03-24T23:56:49.055Z,4.87
2019-03-24T23:59:17.832Z,6.23
